Wetterdaten: Woche 07.06.21 - 13.06.21 (KW23)
Datum Zeit Temp. Aussen Temp. o. S. Temp +5cm Feuchte Auss Luftdruck Regen Sonnenschein Regendauer Solar Windben Empfang
07.06.2021 00:00 16,8 C 16,0 C 14,5 C 90 % 1023,5 hPa 0,0 l/m 0,00 h 0,00 h 0 W/m 7,7 km/h (2 Bft) 95,55 %
07.06.2021 01:00 16,5 C 15,6 C 14,3 C 91 % 1023,5 hPa 0,0 l/m 0,00 h 0,00 h 0 W/m 8,0 km/h (2 Bft) 98,93 %
07.06.2021 02:00 16,0 C 15,0 C 13,7 C 92 % 1023,4 hPa 0,0 l/m 0,00 h 0,00 h 0 W/m 5,6 km/h (1 Bft) 98,93 %
07.06.2021 03:00 15,4 C 14,1 C 13,1 C 94 % 1023,4 hPa 0,0 l/m 0,00 h 0,00 h 0 W/m 1,9 km/h (1 Bft) 96,58 %
07.06.2021 04:00 14,8 C 13,9 C 12,9 C 95 % 1023,4 hPa 0,0 l/m 0,00 h 0,00 h 0 W/m 3,1 km/h (1 Bft) 97,64 %
07.06.2021 05:00 14,2 C 13,0 C 12,3 C 96 % 1023,4 hPa 0,0 l/m 0,00 h 0,00 h 8 W/m 2,8 km/h (1 Bft) 96,44 %
07.06.2021 06:00 14,1 C 13,7 C 12,8 C 97 % 1023,5 hPa 0,0 l/m 0,00 h 0,00 h 35 W/m 5,3 km/h (1 Bft) 97,09 %
07.06.2021 07:00 14,5 C 14,4 C 13,5 C 97 % 1023,6 hPa 0,0 l/m 0,00 h 0,00 h 75 W/m 8,9 km/h (2 Bft) 99,57 %
07.06.2021 08:00 15,1 C 15,8 C 14,8 C 95 % 1023,8 hPa 0,0 l/m 0,10 h 0,00 h 200 W/m 11,6 km/h (2 Bft) 97,86 %
07.06.2021 09:00 16,5 C 17,4 C 15,9 C 90 % 1024,0 hPa 0,0 l/m 0,03 h 0,00 h 261 W/m 10,5 km/h (2 Bft) 97,16 %
07.06.2021 10:00 18,0 C 20,0 C 18,3 C 86 % 1023,9 hPa 0,0 l/m 0,37 h 0,00 h 411 W/m 10,7 km/h (2 Bft) 97,43 %
07.06.2021 11:00 19,9 C 22,2 C 20,3 C 79 % 1023,8 hPa 0,0 l/m 0,50 h 0,00 h 557 W/m 11,7 km/h (2 Bft) 97,65 %
07.06.2021 12:00 19,8 C 19,8 C 17,4 C 77 % 1023,8 hPa 0,0 l/m 0,03 h 0,00 h 173 W/m 11,1 km/h (2 Bft) 98,56 %
07.06.2021 13:00 20,0 C 20,7 C 18,1 C 76 % 1023,7 hPa 0,0 l/m 0,00 h 0,00 h 327 W/m 13,2 km/h (3 Bft) 96,37 %
07.06.2021 14:00 20,3 C 21,3 C 18,4 C 74 % 1023,6 hPa 0,0 l/m 0,10 h 0,00 h 374 W/m 13,7 km/h (3 Bft) 97,94 %
07.06.2021 15:00 20,7 C 21,9 C 18,4 C 74 % 1023,4 hPa 0,0 l/m 0,00 h 0,00 h 299 W/m 9,9 km/h (2 Bft) 99,22 %
07.06.2021 16:00 20,6 C 21,9 C 18,4 C 74 % 1023,2 hPa 0,0 l/m 0,00 h 0,00 h 257 W/m 7,2 km/h (2 Bft) 96,30 %
07.06.2021 17:00 21,2 C 23,8 C 18,8 C 73 % 1022,9 hPa 0,0 l/m 0,43 h 0,00 h 380 W/m 6,0 km/h (2 Bft) 98,22 %
07.06.2021 18:00 22,0 C 24,3 C 19,0 C 69 % 1022,5 hPa 0,0 l/m 0,57 h 0,00 h 286 W/m 6,5 km/h (2 Bft) 98,86 %
07.06.2021 19:00 21,7 C 21,7 C 18,2 C 70 % 1022,4 hPa 0,0 l/m 0,33 h 0,00 h 155 W/m 5,1 km/h (1 Bft) 96,44 %
07.06.2021 20:00 20,7 C 19,8 C 17,0 C 75 % 1022,4 hPa 0,0 l/m 0,00 h 0,00 h 59 W/m 2,3 km/h (1 Bft) 97,51 %
07.06.2021 21:00 19,5 C 17,5 C 15,2 C 81 % 1022,7 hPa 0,0 l/m 0,00 h 0,00 h 15 W/m 0,0 km/h (0 Bft) 97,58 %
07.06.2021 22:00 17,6 C 15,4 C 13,7 C 87 % 1023,0 hPa 0,0 l/m 0,00 h 0,00 h 0 W/m 0,0 km/h (0 Bft) 98,22 %
07.06.2021 23:00 16,2 C 14,5 C 12,9 C 90 % 1023,2 hPa 0,0 l/m 0,00 h 0,00 h 0 W/m 0,2 km/h (0 Bft) 99,57 %
08.06.2021 00:00 15,2 C 13,7 C 12,4 C 92 % 1023,1 hPa 0,0 l/m 0,00 h 0,00 h 0 W/m 0,0 km/h (0 Bft) 96,07 %
08.06.2021 01:00 14,5 C 13,1 C 11,9 C 94 % 1023,1 hPa 0,0 l/m 0,00 h 0,00 h 0 W/m 0,0 km/h (0 Bft) 95,59 %
08.06.2021 02:00 14,1 C 13,3 C 12,3 C 95 % 1023,0 hPa 0,0 l/m 0,00 h 0,00 h 0 W/m 0,5 km/h (0 Bft) 96,73 %
08.06.2021 03:00 13,7 C 12,6 C 11,5 C 95 % 1023,0 hPa 0,0 l/m 0,00 h 0,00 h 0 W/m 0,4 km/h (0 Bft) 99,50 %
08.06.2021 04:00 13,1 C 11,9 C 11,0 C 95 % 1023,1 hPa 0,0 l/m 0,00 h 0,00 h 0 W/m 0,0 km/h (0 Bft) 96,37 %
08.06.2021 05:00 12,5 C 11,7 C 10,6 C 95 % 1023,2 hPa 0,0 l/m 0,00 h 0,00 h 10 W/m 0,2 km/h (0 Bft) 99,08 %
08.06.2021 06:00 12,4 C 12,1 C 11,2 C 96 % 1023,3 hPa 0,0 l/m 0,00 h 0,00 h 29 W/m 0,0 km/h (0 Bft) 98,37 %
08.06.2021 07:00 13,1 C 13,3 C 12,2 C 96 % 1023,4 hPa 0,0 l/m 0,00 h 0,00 h 46 W/m 0,0 km/h (0 Bft) 98,24 %
08.06.2021 08:00 15,0 C 17,8 C 15,2 C 93 % 1023,6 hPa 0,0 l/m 0,83 h 0,00 h 362 W/m 0,8 km/h (0 Bft) 94,37 %
08.06.2021 09:00 19,9 C 25,5 C 21,0 C 80 % 1023,6 hPa 0,0 l/m 1,00 h 0,00 h 557 W/m 5,3 km/h (1 Bft) 98,36 %
08.06.2021 10:00 21,9 C 24,4 C 24,9 C 70 % 1023,7 hPa 0,0 l/m 0,83 h 0,00 h 646 W/m 7,8 km/h (2 Bft) 96,52 %
08.06.2021 11:00 21,7 C 23,5 C 22,1 C 68 % 1023,3 hPa 0,0 l/m 0,53 h 0,00 h 571 W/m 6,0 km/h (2 Bft) 98,01 %
08.06.2021 12:00 22,8 C 24,6 C 24,1 C 64 % 1023,1 hPa 0,0 l/m 0,47 h 0,00 h 566 W/m 7,3 km/h (2 Bft) 97,49 %
08.06.2021 13:00 23,6 C 25,6 C 26,4 C 63 % 1022,9 hPa 0,0 l/m 0,67 h 0,00 h 697 W/m 8,6 km/h (2 Bft) 97,89 %
08.06.2021 14:00 24,9 C 27,8 C 23,1 C 60 % 1022,7 hPa 0,0 l/m 0,77 h 0,00 h 762 W/m 11,1 km/h (2 Bft) 97,53 %
08.06.2021 15:00 25,8 C 28,9 C 23,4 C 58 % 1022,4 hPa 0,0 l/m 0,97 h 0,00 h 830 W/m 10,3 km/h (2 Bft) 96,51 %
08.06.2021 16:00 25,5 C 27,1 C 22,9 C 58 % 1022,0 hPa 0,0 l/m 0,47 h 0,00 h 388 W/m 7,5 km/h (2 Bft) 98,71 %
08.06.2021 17:00 24,9 C 26,3 C 22,2 C 60 % 1021,7 hPa 0,0 l/m 0,27 h 0,00 h 304 W/m 6,4 km/h (2 Bft) 97,51 %
08.06.2021 18:00 24,8 C 27,1 C 22,0 C 60 % 1021,5 hPa 0,0 l/m 0,50 h 0,00 h 296 W/m 6,4 km/h (2 Bft) 96,90 %
08.06.2021 19:00 25,1 C 25,7 C 21,8 C 59 % 1021,4 hPa 0,0 l/m 0,73 h 0,00 h 193 W/m 5,0 km/h (1 Bft) 98,65 %
08.06.2021 20:00 23,9 C 23,1 C 20,1 C 62 % 1021,4 hPa 0,0 l/m 0,40 h 0,00 h 76 W/m 3,2 km/h (1 Bft) 97,07 %
08.06.2021 21:00 23,0 C 20,8 C 18,0 C 69 % 1021,5 hPa 0,0 l/m 0,23 h 0,00 h 20 W/m 0,1 km/h (0 Bft) 97,87 %
08.06.2021 22:00 21,1 C 18,5 C 16,0 C 77 % 1021,9 hPa 0,0 l/m 0,00 h 0,00 h 0 W/m 0,0 km/h (0 Bft) 97,71 %
08.06.2021 23:00 19,2 C 17,1 C 15,0 C 83 % 1022,1 hPa 0,0 l/m 0,00 h 0,00 h 0 W/m 0,0 km/h (0 Bft) 97,01 %
09.06.2021 00:00 17,9 C 16,2 C 14,4 C 87 % 1022,0 hPa 0,0 l/m 0,00 h 0,00 h 0 W/m 0,0 km/h (0 Bft) 98,84 %
09.06.2021 01:00 16,9 C 15,3 C 13,7 C 90 % 1022,0 hPa 0,0 l/m 0,00 h 0,00 h 0 W/m 0,0 km/h (0 Bft) 97,87 %
09.06.2021 02:00 16,1 C 14,6 C 13,2 C 92 % 1021,9 hPa 0,0 l/m 0,00 h 0,00 h 0 W/m 0,0 km/h (0 Bft) 99,00 %
09.06.2021 03:00 15,4 C 14,2 C 12,8 C 93 % 1021,8 hPa 0,0 l/m 0,00 h 0,00 h 0 W/m 0,0 km/h (0 Bft) 94,06 %
09.06.2021 04:00 14,9 C 13,9 C 12,5 C 94 % 1021,7 hPa 0,0 l/m 0,00 h 0,00 h 0 W/m 0,4 km/h (0 Bft) 96,87 %
09.06.2021 05:00 14,5 C 13,4 C 12,3 C 95 % 1021,7 hPa 0,0 l/m 0,00 h 0,00 h 7 W/m 0,1 km/h (0 Bft) 98,65 %
09.06.2021 06:00 14,5 C 14,0 C 12,7 C 96 % 1021,7 hPa 0,0 l/m 0,00 h 0,00 h 33 W/m 0,6 km/h (0 Bft) 97,24 %
09.06.2021 07:00 15,3 C 16,1 C 14,4 C 97 % 1021,7 hPa 0,0 l/m 0,30 h 0,00 h 115 W/m 0,7 km/h (0 Bft) 98,86 %
09.06.2021 08:00 18,2 C 21,4 C 18,2 C 92 % 1021,8 hPa 0,0 l/m 1,00 h 0,00 h 334 W/m 2,2 km/h (1 Bft) 95,59 %
09.06.2021 09:00 22,1 C 26,8 C 23,4 C 76 % 1021,9 hPa 0,0 l/m 1,00 h 0,00 h 511 W/m 4,9 km/h (1 Bft) 95,55 %
09.06.2021 10:00 23,7 C 26,6 C 26,9 C 70 % 1021,9 hPa 0,0 l/m 0,93 h 0,00 h 631 W/m 6,4 km/h (2 Bft) 99,64 %
09.06.2021 11:00 24,0 C 25,5 C 24,4 C 67 % 1022,0 hPa 0,0 l/m 0,53 h 0,00 h 516 W/m 8,7 km/h (2 Bft) 98,22 %
09.06.2021 12:00 25,4 C 27,4 C 29,0 C 61 % 1021,9 hPa 0,0 l/m 0,77 h 0,00 h 710 W/m 9,6 km/h (2 Bft) 94,81 %
09.06.2021 13:00 26,1 C 27,6 C 29,5 C 59 % 1021,7 hPa 0,0 l/m 0,70 h 0,00 h 668 W/m 11,0 km/h (2 Bft) 98,28 %
09.06.2021 14:00 27,1 C 29,8 C 25,7 C 57 % 1021,3 hPa 0,0 l/m 1,00 h 0,00 h 845 W/m 9,8 km/h (2 Bft) 97,83 %
09.06.2021 15:00 27,5 C 29,5 C 25,0 C 55 % 1021,0 hPa 0,0 l/m 1,00 h 0,00 h 544 W/m 8,5 km/h (2 Bft) 56,19 %
09.06.2021 16:00 27,9 C 31,6 C 25,1 C 54 % 1020,5 hPa 0,0 l/m 1,00 h 0,00 h 691 W/m 10,7 km/h (2 Bft) 98,80 %
09.06.2021 17:00 27,9 C 31,6 C 25,2 C 54 % 1020,3 hPa 0,0 l/m 0,93 h 0,00 h 557 W/m 10,4 km/h (2 Bft) 97,08 %
09.06.2021 18:00 27,8 C 30,3 C 24,8 C 54 % 1020,1 hPa 0,0 l/m 0,93 h 0,00 h 390 W/m 10,1 km/h (2 Bft) 98,30 %
09.06.2021 19:00 27,2 C 26,9 C 23,1 C 55 % 1020,0 hPa 0,0 l/m 0,50 h 0,00 h 168 W/m 8,7 km/h (2 Bft) 97,08 %
09.06.2021 20:00 25,6 C 24,7 C 21,7 C 60 % 1020,2 hPa 0,0 l/m 0,30 h 0,00 h 77 W/m 15,2 km/h (3 Bft) 98,43 %
09.06.2021 21:00 23,6 C 22,5 C 20,0 C 66 % 1020,9 hPa 0,0 l/m 0,00 h 0,00 h 16 W/m 12,7 km/h (3 Bft) 97,93 %
09.06.2021 22:00 22,1 C 20,8 C 18,4 C 69 % 1021,3 hPa 0,0 l/m 0,00 h 0,00 h 0 W/m 5,2 km/h (1 Bft) 96,51 %
09.06.2021 23:00 20,8 C 19,2 C 16,7 C 71 % 1021,6 hPa 0,0 l/m 0,00 h 0,00 h 0 W/m 2,2 km/h (1 Bft) 97,65 %
10.06.2021 00:00 19,4 C 17,8 C 15,4 C 73 % 1021,6 hPa 0,0 l/m 0,00 h 0,00 h 0 W/m 1,3 km/h (1 Bft) 97,88 %
10.06.2021 01:00 18,2 C 16,4 C 14,3 C 79 % 1021,5 hPa 0,0 l/m 0,00 h 0,00 h 0 W/m 0,1 km/h (0 Bft) 97,83 %
10.06.2021 02:00 17,0 C 15,9 C 13,9 C 84 % 1021,4 hPa 0,0 l/m 0,00 h 0,00 h 0 W/m 0,0 km/h (0 Bft) 97,57 %
10.06.2021 03:00 16,6 C 15,3 C 13,4 C 86 % 1021,3 hPa 0,0 l/m 0,00 h 0,00 h 0 W/m 0,0 km/h (0 Bft) 97,58 %
10.06.2021 04:00 15,7 C 14,2 C 12,6 C 88 % 1021,1 hPa 0,0 l/m 0,00 h 0,00 h 0 W/m 0,0 km/h (0 Bft) 96,81 %
10.06.2021 05:00 14,9 C 13,9 C 12,3 C 90 % 1021,1 hPa 0,0 l/m 0,00 h 0,00 h 9 W/m 0,0 km/h (0 Bft) 96,95 %
10.06.2021 06:00 14,8 C 14,3 C 12,6 C 90 % 1021,1 hPa 0,0 l/m 0,00 h 0,00 h 24 W/m 0,1 km/h (0 Bft) 98,71 %
10.06.2021 07:00 15,5 C 16,1 C 14,1 C 88 % 1021,1 hPa 0,0 l/m 0,33 h 0,00 h 124 W/m 0,9 km/h (0 Bft) 99,07 %
10.06.2021 08:00 19,3 C 22,9 C 18,8 C 72 % 1021,3 hPa 0,0 l/m 1,00 h 0,00 h 411 W/m 3,3 km/h (1 Bft) 96,72 %
10.06.2021 09:00 23,0 C 29,2 C 24,5 C 60 % 1021,5 hPa 0,0 l/m 1,00 h 0,00 h 576 W/m 6,3 km/h (2 Bft) 98,65 %
10.06.2021 10:00 24,8 C 27,9 C 30,4 C 57 % 1021,6 hPa 0,0 l/m 1,00 h 0,00 h 720 W/m 7,6 km/h (2 Bft) 96,80 %
10.06.2021 11:00 25,6 C 27,6 C 27,1 C 56 % 1021,7 hPa 0,0 l/m 0,83 h 0,00 h 704 W/m 12,0 km/h (2 Bft) 97,94 %
10.06.2021 12:00 26,2 C 27,8 C 32,5 C 56 % 1021,6 hPa 0,0 l/m 1,00 h 0,00 h 820 W/m 11,2 km/h (2 Bft) 98,45 %
10.06.2021 13:00 27,1 C 28,3 C 33,3 C 54 % 1021,2 hPa 0,0 l/m 0,73 h 0,00 h 736 W/m 11,8 km/h (2 Bft) 96,08 %
10.06.2021 14:00 28,4 C 30,0 C 26,0 C 50 % 1020,7 hPa 0,0 l/m 0,87 h 0,00 h 844 W/m 14,0 km/h (3 Bft) 99,07 %
10.06.2021 15:00 29,4 C 31,0 C 26,0 C 47 % 1020,3 hPa 0,0 l/m 0,93 h 0,00 h 825 W/m 10,5 km/h (2 Bft) 96,73 %
10.06.2021 16:00 29,6 C 33,0 C 26,2 C 46 % 1019,9 hPa 0,0 l/m 0,97 h 0,00 h 772 W/m 11,9 km/h (2 Bft) 96,72 %
10.06.2021 17:00 29,8 C 33,6 C 26,2 C 44 % 1019,4 hPa 0,0 l/m 1,00 h 0,00 h 603 W/m 11,3 km/h (2 Bft) 99,79 %
10.06.2021 18:00 29,4 C 33,2 C 26,1 C 45 % 1019,2 hPa 0,0 l/m 1,00 h 0,00 h 431 W/m 8,5 km/h (2 Bft) 97,08 %
10.06.2021 19:00 28,7 C 28,3 C 24,7 C 44 % 1018,9 hPa 0,0 l/m 0,97 h 0,00 h 256 W/m 7,1 km/h (2 Bft) 95,52 %
10.06.2021 20:00 26,9 C 25,6 C 22,9 C 48 % 1018,8 hPa 0,0 l/m 0,00 h 0,00 h 43 W/m 4,9 km/h (1 Bft) 99,71 %
10.06.2021 21:00 25,2 C 22,9 C 20,1 C 55 % 1018,8 hPa 0,0 l/m 0,00 h 0,00 h 13 W/m 0,4 km/h (0 Bft) 97,59 %
10.06.2021 22:00 22,9 C 20,6 C 18,0 C 62 % 1019,2 hPa 0,0 l/m 0,00 h 0,00 h 4 W/m 0,0 km/h (0 Bft) 96,58 %
10.06.2021 23:00 21,2 C 19,5 C 17,2 C 65 % 1019,4 hPa 0,0 l/m 0,00 h 0,00 h 0 W/m 1,1 km/h (0 Bft) 98,50 %
11.06.2021 00:00 20,3 C 19,2 C 17,1 C 70 % 1019,6 hPa 0,0 l/m 0,00 h 0,00 h 0 W/m 9,3 km/h (2 Bft) 96,23 %
11.06.2021 01:00 19,7 C 18,4 C 16,3 C 77 % 1019,8 hPa 0,0 l/m 0,00 h 0,00 h 0 W/m 5,9 km/h (2 Bft) 99,29 %
11.06.2021 02:00 18,9 C 17,2 C 15,2 C 83 % 1019,7 hPa 0,0 l/m 0,00 h 0,00 h 0 W/m 0,3 km/h (0 Bft) 98,22 %
11.06.2021 03:00 18,0 C 16,6 C 14,8 C 87 % 1019,6 hPa 0,0 l/m 0,00 h 0,00 h 0 W/m 0,6 km/h (0 Bft) 93,96 %
11.06.2021 04:00 17,2 C 16,0 C 14,5 C 89 % 1019,5 hPa 0,0 l/m 0,00 h 0,00 h 0 W/m 0,9 km/h (0 Bft) 99,48 %
11.06.2021 05:00 16,8 C 15,6 C 14,2 C 92 % 1019,6 hPa 0,0 l/m 0,00 h 0,00 h 11 W/m 0,1 km/h (0 Bft) 98,29 %
11.06.2021 06:00 16,8 C 16,2 C 14,7 C 93 % 1019,5 hPa 0,0 l/m 0,00 h 0,00 h 31 W/m 1,0 km/h (0 Bft) 97,42 %
11.06.2021 07:00 17,7 C 17,6 C 15,8 C 92 % 1019,4 hPa 0,0 l/m 0,33 h 0,00 h 120 W/m 3,2 km/h (1 Bft) 97,51 %
11.06.2021 08:00 20,1 C 21,6 C 18,6 C 86 % 1019,6 hPa 0,0 l/m 1,00 h 0,00 h 377 W/m 6,9 km/h (2 Bft) 96,43 %
11.06.2021 09:00 22,5 C 26,1 C 22,7 C 78 % 1019,8 hPa 0,0 l/m 1,00 h 0,00 h 542 W/m 9,4 km/h (2 Bft) 97,58 %
11.06.2021 10:00 23,6 C 25,6 C 26,6 C 73 % 1020,1 hPa 0,0 l/m 1,00 h 0,00 h 688 W/m 12,7 km/h (3 Bft) 99,29 %
11.06.2021 11:00 24,5 C 26,1 C 25,8 C 70 % 1020,1 hPa 0,0 l/m 0,83 h 0,00 h 709 W/m 13,3 km/h (3 Bft) 96,86 %
11.06.2021 12:00 24,5 C 25,8 C 27,4 C 69 % 1019,8 hPa 0,0 l/m 0,53 h 0,00 h 599 W/m 11,1 km/h (2 Bft) 96,98 %
11.06.2021 13:00 26,9 C 28,4 C 33,5 C 61 % 1019,5 hPa 0,0 l/m 0,77 h 0,00 h 837 W/m 12,4 km/h (3 Bft) 99,65 %
11.06.2021 14:00 26,8 C 28,0 C 24,9 C 60 % 1019,2 hPa 0,0 l/m 0,53 h 0,00 h 647 W/m 11,1 km/h (2 Bft) 95,87 %
11.06.2021 15:00 27,8 C 29,2 C 25,1 C 56 % 1018,8 hPa 0,0 l/m 0,73 h 0,00 h 688 W/m 11,4 km/h (2 Bft) 97,66 %
11.06.2021 16:00 28,0 C 29,7 C 25,0 C 56 % 1018,6 hPa 0,0 l/m 0,47 h 0,00 h 468 W/m 12,3 km/h (3 Bft) 99,14 %
11.06.2021 17:00 28,0 C 31,0 C 25,2 C 56 % 1018,3 hPa 0,0 l/m 0,83 h 0,00 h 507 W/m 14,0 km/h (3 Bft) 96,87 %
11.06.2021 18:00 27,9 C 30,0 C 24,9 C 57 % 1018,0 hPa 0,0 l/m 0,93 h 0,00 h 371 W/m 12,1 km/h (2 Bft) 96,76 %
11.06.2021 19:00 27,2 C 27,1 C 23,5 C 59 % 1017,9 hPa 0,0 l/m 0,97 h 0,00 h 228 W/m 9,0 km/h (2 Bft) 98,07 %
11.06.2021 20:00 26,1 C 25,3 C 22,5 C 62 % 1018,1 hPa 0,0 l/m 0,00 h 0,00 h 76 W/m 8,6 km/h (2 Bft) 99,00 %
11.06.2021 21:00 24,6 C 23,1 C 20,7 C 69 % 1018,2 hPa 0,0 l/m 0,00 h 0,00 h 13 W/m 6,9 km/h (2 Bft) 95,51 %
11.06.2021 22:00 23,1 C 21,7 C 19,6 C 74 % 1018,8 hPa 0,0 l/m 0,00 h 0,00 h 0 W/m 10,6 km/h (2 Bft) 97,47 %
11.06.2021 23:00 21,7 C 20,5 C 18,4 C 76 % 1019,1 hPa 0,0 l/m 0,00 h 0,00 h 0 W/m 7,2 km/h (2 Bft) 99,62 %
12.06.2021 00:00 20,7 C 19,4 C 17,4 C 81 % 1019,3 hPa 0,0 l/m 0,00 h 0,00 h 0 W/m 2,4 km/h (1 Bft) 96,25 %
12.06.2021 01:00 19,7 C 18,3 C 16,4 C 85 % 1019,2 hPa 0,0 l/m 0,00 h 0,00 h 0 W/m 0,1 km/h (0 Bft) 96,58 %
12.06.2021 02:00 19,1 C 18,2 C 16,3 C 87 % 1018,9 hPa 0,0 l/m 0,00 h 0,00 h 0 W/m 1,6 km/h (1 Bft) 99,08 %
12.06.2021 03:00 19,1 C 18,4 C 16,6 C 87 % 1018,7 hPa 0,0 l/m 0,00 h 0,00 h 0 W/m 3,1 km/h (1 Bft) 97,87 %
12.06.2021 04:00 19,0 C 18,2 C 16,1 C 87 % 1018,9 hPa 0,0 l/m 0,00 h 0,00 h 0 W/m 4,6 km/h (1 Bft) 97,30 %
12.06.2021 05:00 18,5 C 17,4 C 15,6 C 88 % 1018,8 hPa 0,0 l/m 0,00 h 0,00 h 13 W/m 2,8 km/h (1 Bft) 96,08 %
12.06.2021 06:00 18,2 C 17,5 C 15,8 C 90 % 1018,9 hPa 0,0 l/m 0,00 h 0,00 h 45 W/m 3,4 km/h (1 Bft) 96,58 %
12.06.2021 07:00 18,5 C 18,3 C 16,5 C 90 % 1018,9 hPa 0,0 l/m 0,33 h 0,00 h 153 W/m 9,9 km/h (2 Bft) 97,94 %
12.06.2021 08:00 18,7 C 18,6 C 16,8 C 88 % 1019,3 hPa 0,0 l/m 0,10 h 0,00 h 177 W/m 12,7 km/h (3 Bft) 98,28 %
12.06.2021 09:00 18,9 C 18,9 C 17,0 C 87 % 1019,7 hPa 0,0 l/m 0,03 h 0,00 h 178 W/m 11,8 km/h (2 Bft) 94,87 %
12.06.2021 10:00 18,7 C 18,7 C 17,2 C 87 % 1019,9 hPa 0,0 l/m 0,20 h 0,00 h 223 W/m 10,1 km/h (2 Bft) 99,22 %
12.06.2021 11:00 20,1 C 20,5 C 19,0 C 84 % 1020,1 hPa 0,0 l/m 0,13 h 0,00 h 300 W/m 11,3 km/h (2 Bft) 99,22 %
12.06.2021 12:00 20,4 C 20,8 C 19,0 C 81 % 1020,4 hPa 0,0 l/m 0,10 h 0,00 h 356 W/m 13,3 km/h (3 Bft) 95,09 %
12.06.2021 13:00 21,1 C 21,4 C 19,7 C 77 % 1020,3 hPa 0,0 l/m 0,23 h 0,00 h 331 W/m 14,6 km/h (3 Bft) 98,38 %
12.06.2021 14:00 22,7 C 24,3 C 20,8 C 63 % 1020,5 hPa 0,0 l/m 0,83 h 0,00 h 732 W/m 25,7 km/h (4 Bft) 98,29 %
12.06.2021 15:00 22,9 C 24,2 C 20,5 C 59 % 1020,9 hPa 0,0 l/m 0,70 h 0,00 h 697 W/m 25,3 km/h (4 Bft) 97,27 %
12.06.2021 16:00 22,9 C 25,5 C 20,7 C 58 % 1021,3 hPa 0,0 l/m 0,80 h 0,00 h 644 W/m 26,2 km/h (4 Bft) 96,83 %
12.06.2021 17:00 22,8 C 25,2 C 20,5 C 56 % 1021,6 hPa 0,0 l/m 0,67 h 0,00 h 491 W/m 23,9 km/h (4 Bft) 97,08 %
12.06.2021 18:00 22,6 C 25,5 C 20,4 C 56 % 1022,0 hPa 0,0 l/m 0,90 h 0,00 h 449 W/m 21,7 km/h (4 Bft) 98,08 %
12.06.2021 19:00 21,6 C 21,5 C 18,8 C 57 % 1022,5 hPa 0,0 l/m 0,90 h 0,00 h 252 W/m 21,0 km/h (4 Bft) 95,19 %
12.06.2021 20:00 20,6 C 20,1 C 17,5 C 60 % 1023,1 hPa 0,0 l/m 0,00 h 0,00 h 54 W/m 23,5 km/h (4 Bft) 98,41 %
12.06.2021 21:00 18,7 C 17,5 C 15,4 C 67 % 1023,8 hPa 0,0 l/m 0,00 h 0,00 h 15 W/m 19,6 km/h (3 Bft) 98,76 %
12.06.2021 22:00 17,2 C 16,2 C 13,9 C 71 % 1024,5 hPa 0,0 l/m 0,00 h 0,00 h 0 W/m 7,8 km/h (2 Bft) 96,11 %
12.06.2021 23:00 15,9 C 14,7 C 12,6 C 75 % 1025,1 hPa 0,0 l/m 0,00 h 0,00 h 0 W/m 5,9 km/h (2 Bft) 96,88 %
13.06.2021 00:00 15,0 C 14,0 C 11,8 C 79 % 1025,7 hPa 0,0 l/m 0,00 h 0,00 h 0 W/m 5,3 km/h (1 Bft) 97,75 %
13.06.2021 01:00 14,1 C 12,8 C 10,9 C 82 % 1026,1 hPa 0,0 l/m 0,00 h 0,00 h 0 W/m 0,4 km/h (0 Bft) 97,29 %
13.06.2021 02:00 13,1 C 12,0 C 10,2 C 85 % 1026,1 hPa 0,0 l/m 0,00 h 0,00 h 0 W/m 0,7 km/h (0 Bft) 96,65 %
13.06.2021 03:00 12,2 C 11,1 C 9,5 C 87 % 1026,3 hPa 0,0 l/m 0,00 h 0,00 h 0 W/m 0,7 km/h (0 Bft) 97,78 %
13.06.2021 04:00 11,5 C 10,3 C 8,9 C 89 % 1026,3 hPa 0,0 l/m 0,00 h 0,00 h 0 W/m 0,3 km/h (0 Bft) 98,78 %
13.06.2021 05:00 10,8 C 10,0 C 8,5 C 91 % 1026,6 hPa 0,0 l/m 0,00 h 0,00 h 10 W/m 0,0 km/h (0 Bft) 96,15 %
13.06.2021 06:00 10,8 C 10,5 C 9,1 C 93 % 1027,0 hPa 0,0 l/m 0,00 h 0,00 h 24 W/m 0,0 km/h (0 Bft) 95,33 %
13.06.2021 07:00 12,0 C 12,3 C 10,6 C 93 % 1027,6 hPa 0,0 l/m 0,33 h 0,00 h 122 W/m 2,0 km/h (1 Bft) 96,87 %
13.06.2021 08:00 14,9 C 17,2 C 13,8 C 83 % 1028,1 hPa 0,0 l/m 0,80 h 0,00 h 333 W/m 4,4 km/h (1 Bft) 99,43 %
13.06.2021 09:00 17,1 C 21,1 C 16,7 C 69 % 1028,5 hPa 0,0 l/m 0,70 h 0,00 h 487 W/m 6,9 km/h (2 Bft) 98,73 %
13.06.2021 10:00 19,1 C 22,8 C 22,8 C 63 % 1028,6 hPa 0,0 l/m 0,97 h 0,00 h 712 W/m 8,9 km/h (2 Bft) 97,72 %
13.06.2021 11:00 19,8 C 22,4 C 22,4 C 60 % 1028,6 hPa 0,0 l/m 1,00 h 0,00 h 842 W/m 8,9 km/h (2 Bft) 97,79 %
13.06.2021 12:00 21,1 C 22,8 C 29,2 C 55 % 1028,6 hPa 0,0 l/m 1,00 h 0,00 h 922 W/m 11,9 km/h (2 Bft) 97,64 %
13.06.2021 13:00 22,1 C 23,6 C 32,8 C 54 % 1028,4 hPa 0,0 l/m 1,00 h 0,00 h 953 W/m 10,5 km/h (2 Bft) 96,87 %
13.06.2021 14:00 23,1 C 25,3 C 21,5 C 53 % 1028,0 hPa 0,0 l/m 1,00 h 0,00 h 937 W/m 11,1 km/h (2 Bft) 96,25 %
13.06.2021 15:00 24,0 C 26,3 C 20,9 C 49 % 1027,5 hPa 0,0 l/m 1,00 h 0,00 h 872 W/m 10,2 km/h (2 Bft) 99,15 %
13.06.2021 16:00 24,9 C 29,5 C 21,9 C 47 % 1027,0 hPa 0,0 l/m 1,00 h 0,00 h 765 W/m 9,2 km/h (2 Bft) 95,48 %
13.06.2021 17:00 25,5 C 30,5 C 22,6 C 47 % 1026,5 hPa 0,0 l/m 1,00 h 0,00 h 622 W/m 8,3 km/h (2 Bft) 98,37 %
13.06.2021 18:00 25,5 C 30,1 C 22,7 C 49 % 1026,1 hPa 0,0 l/m 1,00 h 0,00 h 453 W/m 7,0 km/h (2 Bft) 99,35 %
13.06.2021 19:00 24,7 C 25,1 C 21,2 C 49 % 1025,9 hPa 0,0 l/m 1,00 h 0,00 h 275 W/m 5,5 km/h (1 Bft) 95,30 %
13.06.2021 20:00 22,6 C 21,6 C 19,1 C 54 % 1025,5 hPa 0,0 l/m 0,00 h 0,00 h 33 W/m 3,0 km/h (1 Bft) 97,58 %
13.06.2021 21:00 21,2 C 19,3 C 17,1 C 60 % 1025,3 hPa 0,0 l/m 0,00 h 0,00 h 13 W/m 1,1 km/h (0 Bft) 97,94 %
13.06.2021 22:00 19,5 C 17,2 C 15,1 C 66 % 1025,3 hPa 0,0 l/m 0,00 h 0,00 h 0 W/m 0,0 km/h (0 Bft) 97,27 %
13.06.2021 23:00 17,3 C 15,6 C 13,8 C 73 % 1025,0 hPa 0,0 l/m 0,00 h 0,00 h 0 W/m 0,0 km/h (0 Bft) 99,15 %
Min-Datum _ 13.06.21 13.06.21 13.06.21 10.06.21 11.06.21 - - - - 07.06.21 09.06.21
_ Min-Zeit 05:50 04:34 05:12 17:20 19:12 - - - - 02:58 15:12
Minimum _ 10,6 C 10,0 C 8,4 C 42 % 1017,8 hPa - - - - 0,0 km/h (0 Bft) 30,95 %
Max-Datum _ 10.06.21 10.06.21 10.06.21 07.06.21 13.06.21 07.06.21 07.06.21 07.06.21 08.06.21 12.06.21 07.06.21
_ Max-Zeit 17:24 16:46 13:36 06:58 10:42 00:00 18:08 00:00 13:16 16:18 01:18
Maximum _ 30,0 C 35,6 C 37,3 C 98 % 1028,8 hPa 0,0 l/m 0,07 h 0,00 h 1095 W/m 41,8 km/h
N-NW (6 Bft)
100,00 %
Durchschnitt _ 20,5 C 21,0 C 18,7 C 74 % 1022,1 hPa #0,0 l/m #61:20 h #0 min. 378 W/m 6,7 km/h (2 Bft) 97,30 %
© 2021 W. Hausmann